createdAt,value
2023-01-22T00:03:58.156Z,3.10
2023-01-22T00:08:57.888Z,3.60
2023-01-22T00:13:57.939Z,3.90
2023-01-22T00:18:57.938Z,3.90
2023-01-22T00:23:57.955Z,3.70
2023-01-22T00:28:57.636Z,4.00
2023-01-22T00:33:57.718Z,3.80
2023-01-22T00:38:57.683Z,4.00
2023-01-22T00:43:57.455Z,3.70
2023-01-22T00:48:57.391Z,4.20
2023-01-22T00:53:57.359Z,3.80
2023-01-22T00:58:58.672Z,4.30
2023-01-22T01:03:57.201Z,4.00
2023-01-22T01:08:57.160Z,4.00
2023-01-22T01:13:57.030Z,4.30
2023-01-22T01:18:56.975Z,3.90
2023-01-22T01:23:56.919Z,4.60
2023-01-22T01:28:56.836Z,3.80
2023-01-22T01:33:56.781Z,4.40
2023-01-22T01:38:56.702Z,4.30
2023-01-22T01:43:56.672Z,4.20
2023-01-22T01:48:56.580Z,4.40
2023-01-22T01:53:56.550Z,4.70
2023-01-22T01:58:56.536Z,4.60
2023-01-22T02:03:56.418Z,4.70
2023-01-22T02:08:56.366Z,4.50
2023-01-22T02:13:56.288Z,4.80
2023-01-22T02:18:56.289Z,4.60
2023-01-22T02:23:56.207Z,5.00
2023-01-22T02:28:56.122Z,4.20
2023-01-22T02:33:56.088Z,4.70
2023-01-22T02:38:55.973Z,4.80
2023-01-22T02:43:55.932Z,4.90
2023-01-22T02:48:55.837Z,4.70
2023-01-22T02:53:55.786Z,5.40
2023-01-22T02:58:55.723Z,4.10
2023-01-22T03:03:55.636Z,4.60
2023-01-22T03:08:55.599Z,4.80
2023-01-22T03:13:56.458Z,5.00
2023-01-22T03:18:55.415Z,4.10
2023-01-22T03:23:55.342Z,4.20
2023-01-22T03:28:55.272Z,4.40
2023-01-22T03:33:55.225Z,4.40
2023-01-22T03:38:55.151Z,4.70
2023-01-22T03:43:55.096Z,4.20
2023-01-22T03:48:55.092Z,4.80
2023-01-22T03:53:54.988Z,4.70
2023-01-22T03:58:54.984Z,4.60
2023-01-22T04:03:54.856Z,4.80
2023-01-22T04:08:55.626Z,4.50
2023-01-22T04:13:54.700Z,5.10
2023-01-22T04:18:54.651Z,5.20
2023-01-22T04:23:54.607Z,5.10
2023-01-22T04:28:54.484Z,5.70
2023-01-22T04:33:54.484Z,5.80
2023-01-22T04:38:54.374Z,5.60
2023-01-22T04:43:54.322Z,5.90
2023-01-22T04:48:54.278Z,6.00
2023-01-22T04:53:54.191Z,6.10
2023-01-22T04:58:54.127Z,6.10
2023-01-22T05:03:54.027Z,6.70
2023-01-22T05:08:54.010Z,6.60
2023-01-22T05:13:53.927Z,6.50
2023-01-22T05:18:53.871Z,7.10
2023-01-22T05:23:53.796Z,6.60
2023-01-22T05:28:53.739Z,6.40
2023-01-22T05:33:53.678Z,6.20
2023-01-22T05:38:53.557Z,6.60
2023-01-22T05:43:53.565Z,6.90
2023-01-22T05:48:53.467Z,6.30
2023-01-22T05:53:53.403Z,6.90
2023-01-22T05:58:53.348Z,6.50
2023-01-22T06:03:53.298Z,7.10
2023-01-22T06:08:53.211Z,7.10
2023-01-22T06:13:53.139Z,6.70
2023-01-22T06:18:53.059Z,7.30
2023-01-22T06:23:52.992Z,7.80
2023-01-22T06:28:52.939Z,7.40
2023-01-22T06:33:52.858Z,8.00
2023-01-22T06:38:52.826Z,8.30
2023-01-22T06:43:52.734Z,8.60
2023-01-22T06:48:52.690Z,8.40
2023-01-22T06:53:52.622Z,8.20
2023-01-22T06:58:52.560Z,8.40
2023-01-22T07:03:52.616Z,9.50
2023-01-22T07:08:52.402Z,8.10
2023-01-22T07:13:52.388Z,8.40
2023-01-22T07:18:52.265Z,7.90
2023-01-22T07:23:52.239Z,8.30
2023-01-22T07:28:52.171Z,9.10
2023-01-22T07:33:52.115Z,8.60
2023-01-22T07:38:52.068Z,8.20
2023-01-22T07:43:51.978Z,7.60
2023-01-22T07:48:51.882Z,8.60
2023-01-22T07:53:51.862Z,6.40
2023-01-22T07:58:51.777Z,6.10
2023-01-22T08:03:51.710Z,6.40
2023-01-22T08:08:51.650Z,5.90
2023-01-22T08:13:51.560Z,6.10
2023-01-22T08:18:51.511Z,7.30
2023-01-22T08:23:51.471Z,6.00
2023-01-22T08:28:51.394Z,5.00
2023-01-22T08:33:51.347Z,5.30
2023-01-22T08:38:51.240Z,5.20
2023-01-22T08:43:51.192Z,5.60
2023-01-22T08:48:51.189Z,6.50
2023-01-22T08:53:51.065Z,6.80
2023-01-22T08:58:51.024Z,7.40
2023-01-22T09:03:50.952Z,7.40
2023-01-22T09:08:50.851Z,7.70
2023-01-22T09:13:50.764Z,8.80
2023-01-22T09:18:50.714Z,10.00
2023-01-22T09:23:50.687Z,10.00
2023-01-22T09:28:50.639Z,10.00
2023-01-22T09:33:50.533Z,10.40
2023-01-22T09:38:50.785Z,11.60
2023-01-22T09:43:50.416Z,12.20
2023-01-22T09:48:50.352Z,15.40
2023-01-22T09:53:50.298Z,13.50
2023-01-22T09:58:50.253Z,11.20
2023-01-22T10:03:50.183Z,10.70
2023-01-22T10:08:50.027Z,9.40
2023-01-22T10:13:50.071Z,10.80
2023-01-22T10:18:49.929Z,10.80
2023-01-22T10:23:49.872Z,12.90
2023-01-22T10:28:49.790Z,15.30
2023-01-22T10:33:49.732Z,13.80
2023-01-22T10:38:49.725Z,14.00
2023-01-22T10:43:49.595Z,14.00
2023-01-22T10:48:49.526Z,13.70
2023-01-22T10:53:49.713Z,15.10
2023-01-22T10:58:49.387Z,14.10
2023-01-22T11:03:49.360Z,14.30
2023-01-22T11:08:49.244Z,13.10
2023-01-22T11:13:49.180Z,14.60
2023-01-22T11:18:49.155Z,15.80
2023-01-22T11:23:49.058Z,14.70
2023-01-22T11:28:49.034Z,13.50
2023-01-22T11:33:48.916Z,14.00
2023-01-22T11:38:48.848Z,13.60
2023-01-22T11:43:48.821Z,13.30
2023-01-22T11:48:48.751Z,12.90
2023-01-22T11:53:48.675Z,12.60
2023-01-22T11:58:48.619Z,12.70
2023-01-22T12:03:48.622Z,12.80
2023-01-22T12:08:48.480Z,11.50
2023-01-22T12:13:48.382Z,12.10
2023-01-22T12:18:48.344Z,12.10
2023-01-22T12:23:48.276Z,11.30
2023-01-22T12:28:48.231Z,11.50
2023-01-22T12:33:48.196Z,12.90
2023-01-22T12:38:48.122Z,12.80
2023-01-22T12:43:47.994Z,11.40
2023-01-22T12:48:47.955Z,13.60
2023-01-22T12:53:47.897Z,13.70
2023-01-22T12:58:47.824Z,13.50
2023-01-22T13:03:47.756Z,13.50
2023-01-22T13:08:47.793Z,14.00
2023-01-22T13:13:47.625Z,13.90
2023-01-22T13:18:47.537Z,13.90
2023-01-22T13:23:47.533Z,13.80
2023-01-22T13:28:48.463Z,14.90
2023-01-22T13:33:47.360Z,14.80
2023-01-22T13:38:47.351Z,14.90
2023-01-22T13:43:47.237Z,12.70
2023-01-22T13:48:47.184Z,12.20
2023-01-22T13:53:49.365Z,13.30
2023-01-22T13:58:48.581Z,12.30
2023-01-22T14:03:47.007Z,11.70
2023-01-22T14:08:46.899Z,12.30
2023-01-22T14:13:46.860Z,12.50
2023-01-22T14:18:46.833Z,12.90
2023-01-22T14:23:46.968Z,13.50
2023-01-22T14:28:46.731Z,13.80
2023-01-22T14:33:46.711Z,11.70
2023-01-22T14:38:46.515Z,11.20
2023-01-22T14:43:46.494Z,11.80
2023-01-22T14:48:46.406Z,13.30
2023-01-22T14:53:46.401Z,13.70
2023-01-22T14:58:46.278Z,12.70
2023-01-22T15:03:53.700Z,11.90
2023-01-22T15:08:46.132Z,12.60
2023-01-22T15:13:46.357Z,13.40
2023-01-22T15:18:45.955Z,13.10
2023-01-22T15:23:45.999Z,12.00
2023-01-22T15:28:45.840Z,12.30
2023-01-22T15:33:45.847Z,12.00
2023-01-22T15:38:45.985Z,11.40
2023-01-22T15:43:45.746Z,10.60
2023-01-22T15:48:45.594Z,10.80
2023-01-22T15:53:45.835Z,10.00
2023-01-22T15:58:45.489Z,10.10
2023-01-22T16:03:45.396Z,9.50
2023-01-22T16:08:45.370Z,9.10
2023-01-22T16:13:45.289Z,9.70
2023-01-22T16:18:45.273Z,10.20
2023-01-22T16:23:45.233Z,9.60
2023-01-22T16:28:45.090Z,11.10
2023-01-22T16:33:46.023Z,9.40
2023-01-22T16:38:44.990Z,9.40
2023-01-22T16:43:44.970Z,9.50
2023-01-22T16:48:44.850Z,7.30
2023-01-22T16:53:44.805Z,7.80
2023-01-22T16:58:44.679Z,8.10
2023-01-22T17:03:44.725Z,8.20
2023-01-22T17:08:44.555Z,8.60
2023-01-22T17:13:44.505Z,8.10
2023-01-22T17:18:44.420Z,9.00
2023-01-22T17:23:44.384Z,8.60
2023-01-22T17:28:44.999Z,9.50
2023-01-22T17:33:44.238Z,8.80
2023-01-22T17:38:44.145Z,9.50
2023-01-22T17:43:44.164Z,9.60
2023-01-22T17:48:44.015Z,9.30
2023-01-22T17:53:43.989Z,9.80
2023-01-22T17:58:43.915Z,9.80
2023-01-22T18:03:43.811Z,10.50
2023-01-22T18:08:43.830Z,10.10
2023-01-22T18:13:43.709Z,10.60
2023-01-22T18:18:43.675Z,10.30
2023-01-22T18:23:43.613Z,9.00
2023-01-22T18:28:43.524Z,10.70
2023-01-22T18:33:43.459Z,9.80
2023-01-22T18:38:43.431Z,10.10
2023-01-22T18:43:43.340Z,11.40
2023-01-22T18:48:43.316Z,10.50
2023-01-22T18:53:43.223Z,12.10
2023-01-22T18:58:43.131Z,12.10
2023-01-22T19:03:43.065Z,11.90
2023-01-22T19:08:43.083Z,11.50
2023-01-22T19:13:43.006Z,10.60
2023-01-22T19:18:42.897Z,10.80
2023-01-22T19:23:42.894Z,12.60
2023-01-22T19:28:42.909Z,12.70
2023-01-22T19:33:43.001Z,12.20
2023-01-22T19:38:42.611Z,12.20
2023-01-22T19:43:42.552Z,11.90
2023-01-22T19:48:42.472Z,11.70
2023-01-22T19:53:42.466Z,11.50
2023-01-22T19:58:42.326Z,11.90
2023-01-22T20:03:42.560Z,11.90
2023-01-22T20:08:42.299Z,12.10
2023-01-22T20:13:42.134Z,12.00
2023-01-22T20:18:42.096Z,11.30
2023-01-22T20:23:42.063Z,10.40
2023-01-22T20:28:41.948Z,9.80
2023-01-22T20:33:42.044Z,9.60
2023-01-22T20:38:41.863Z,9.70
2023-01-22T20:43:43.157Z,10.30
2023-01-22T20:48:41.721Z,10.40
2023-01-22T20:53:41.610Z,8.50
2023-01-22T20:58:41.539Z,8.10
2023-01-22T21:03:41.512Z,8.40
2023-01-22T21:08:41.411Z,8.80
2023-01-22T21:13:41.471Z,8.70
2023-01-22T21:18:41.332Z,8.40
2023-01-22T21:23:41.326Z,8.90
2023-01-22T21:28:41.154Z,9.30
2023-01-22T21:33:41.490Z,9.00
2023-01-22T21:38:41.062Z,9.00
2023-01-22T21:43:40.978Z,8.30
2023-01-22T21:48:40.963Z,8.80
2023-01-22T21:53:40.882Z,8.70
2023-01-22T21:58:40.818Z,8.90
2023-01-22T22:03:40.961Z,9.30
2023-01-22T22:08:40.643Z,8.80
2023-01-22T22:13:40.537Z,8.90
2023-01-22T22:18:40.520Z,9.60
2023-01-22T22:23:40.855Z,9.40
2023-01-22T22:28:40.364Z,9.70
2023-01-22T22:33:40.368Z,10.50
2023-01-22T22:38:40.232Z,10.10
2023-01-22T22:43:40.213Z,9.90
2023-01-22T22:48:40.169Z,11.10
2023-01-22T22:53:40.080Z,10.90
2023-01-22T22:58:40.052Z,11.00
2023-01-22T23:03:40.017Z,11.70
2023-01-22T23:08:39.871Z,11.90
2023-01-22T23:13:39.832Z,12.30
2023-01-22T23:18:39.715Z,13.00
2023-01-22T23:23:39.693Z,12.80
2023-01-22T23:28:39.651Z,12.90
2023-01-22T23:33:39.536Z,13.90
2023-01-22T23:38:39.513Z,13.50
2023-01-22T23:43:39.399Z,14.50
2023-01-22T23:48:39.400Z,13.80
2023-01-22T23:53:39.291Z,14.40
2023-01-22T23:58:39.188Z,14.50
